createdAt,value
2023-01-08T00:01:26.009Z,14.90
2023-01-08T00:03:56.312Z,13.20
2023-01-08T00:06:26.883Z,16.92
2023-01-08T00:08:57.085Z,14.00
2023-01-08T00:11:27.756Z,14.25
2023-01-08T00:13:58.435Z,17.75
2023-01-08T00:16:29.040Z,15.13
2023-01-08T00:18:59.267Z,18.95
2023-01-08T00:21:31.153Z,13.93
2023-01-08T00:24:01.401Z,12.27
2023-01-08T00:26:32.231Z,14.95
2023-01-08T00:29:02.513Z,11.48
2023-01-08T00:31:33.326Z,12.68
2023-01-08T00:34:06.143Z,11.38
2023-01-08T00:36:37.409Z,14.35
2023-01-08T00:39:07.577Z,15.82
2023-01-08T00:41:38.114Z,12.68
2023-01-08T00:44:08.512Z,20.70
2023-01-08T00:46:39.459Z,19.05
2023-01-08T00:49:10.300Z,17.80
2023-01-08T00:51:41.087Z,31.15
2023-01-08T00:54:13.338Z,25.83
2023-01-08T00:56:43.915Z,22.92
2023-01-08T00:59:14.050Z,18.08
2023-01-08T01:01:44.783Z,18.13
2023-01-08T01:04:16.246Z,18.38
2023-01-08T01:06:49.148Z,20.55
2023-01-08T01:09:19.248Z,15.52
2023-01-08T01:11:49.822Z,14.07
2023-01-08T01:14:20.145Z,20.35
2023-01-08T01:16:51.625Z,19.30
2023-01-08T01:19:27.769Z,16.67
2023-01-08T01:21:58.367Z,17.95
2023-01-08T01:24:28.941Z,22.17
2023-01-08T01:26:59.500Z,18.08
2023-01-08T01:29:29.750Z,16.80
2023-01-08T01:32:00.793Z,17.23
2023-01-08T01:34:30.891Z,19.08
2023-01-08T01:37:01.436Z,15.70
2023-01-08T01:39:32.051Z,16.20
2023-01-08T01:42:02.655Z,14.18
2023-01-08T01:44:47.190Z,19.65
2023-01-08T01:47:38.231Z,15.95
2023-01-08T01:52:49.146Z,16.45
2023-01-08T01:55:19.832Z,21.08
2023-01-08T01:58:00.523Z,18.45
2023-01-08T02:00:31.991Z,16.50
2023-01-08T02:03:03.328Z,18.48
2023-01-08T02:05:53.590Z,16.98
2023-01-08T02:08:37.138Z,11.30
2023-01-08T02:11:07.511Z,16.23
2023-01-08T02:13:42.379Z,20.08
2023-01-08T02:16:21.255Z,18.95
2023-01-08T02:19:09.807Z,25.42
2023-01-08T02:21:48.896Z,19.45
2023-01-08T02:24:33.609Z,17.35
2023-01-08T02:27:07.488Z,13.90
2023-01-08T02:29:38.478Z,16.92
2023-01-08T02:32:08.787Z,14.18
2023-01-08T02:34:39.316Z,12.93
2023-01-08T02:40:10.384Z,16.02
2023-01-08T02:43:11.140Z,12.10
2023-01-08T02:45:56.665Z,15.18
2023-01-08T02:48:47.460Z,13.35
2023-01-08T02:51:25.734Z,19.40
2023-01-08T02:54:09.757Z,20.70
2023-01-08T02:56:47.420Z,14.05
2023-01-08T02:59:20.628Z,17.20
2023-01-08T03:01:51.842Z,16.83
2023-01-08T03:04:26.072Z,18.05
2023-01-08T03:06:56.880Z,22.75
2023-01-08T03:09:27.289Z,13.75
2023-01-08T03:12:16.106Z,17.98
2023-01-08T03:15:00.788Z,16.52
2023-01-08T03:17:41.641Z,19.05
2023-01-08T03:20:18.498Z,14.60
2023-01-08T03:25:24.780Z,15.98
2023-01-08T03:28:01.738Z,10.70
2023-01-08T03:30:33.049Z,11.13
2023-01-08T03:33:06.235Z,13.48
2023-01-08T03:35:40.603Z,17.02
2023-01-08T03:38:24.910Z,12.55
2023-01-08T03:43:29.430Z,12.80
2023-01-08T03:46:03.888Z,8.82
2023-01-08T03:48:37.290Z,17.02
2023-01-08T03:51:11.521Z,13.40
2023-01-08T03:53:42.243Z,9.23
2023-01-08T03:56:12.547Z,16.38
2023-01-08T03:58:43.090Z,13.63
2023-01-08T04:01:13.277Z,13.65
2023-01-08T04:03:44.070Z,14.13
2023-01-08T04:08:43.706Z,10.48
2023-01-08T04:11:14.139Z,12.48
2023-01-08T04:13:44.397Z,14.98
2023-01-08T04:16:14.909Z,12.90
2023-01-08T04:18:45.181Z,15.35
2023-01-08T04:21:15.572Z,15.48
2023-01-08T04:23:46.049Z,13.13
2023-01-08T04:26:16.501Z,11.48
2023-01-08T04:28:46.740Z,14.32
2023-01-08T04:31:17.218Z,15.55
2023-01-08T04:33:47.485Z,20.02
2023-01-08T04:36:17.875Z,20.33
2023-01-08T04:38:48.344Z,8.70
2023-01-08T04:41:19.655Z,12.25
2023-01-08T04:43:49.960Z,15.88
2023-01-08T04:46:20.484Z,16.10
2023-01-08T04:48:50.766Z,12.88
2023-01-08T04:51:21.250Z,15.43
2023-01-08T04:53:51.754Z,12.50
2023-01-08T04:56:22.346Z,13.52
2023-01-08T05:01:28.584Z,13.32
2023-01-08T05:04:05.335Z,17.10
2023-01-08T05:06:35.879Z,7.72
2023-01-08T05:09:06.278Z,12.43
2023-01-08T05:11:38.550Z,16.02
2023-01-08T05:14:08.917Z,18.70
2023-01-08T05:16:39.338Z,16.42
2023-01-08T05:19:09.574Z,11.93
2023-01-08T05:21:40.022Z,12.77
2023-01-08T05:24:13.453Z,10.50
2023-01-08T05:26:43.900Z,14.35
2023-01-08T05:29:14.200Z,11.32
2023-01-08T05:31:44.623Z,13.75
2023-01-08T05:34:14.891Z,16.10
2023-01-08T05:36:48.164Z,15.88
2023-01-08T05:39:18.539Z,10.52
2023-01-08T05:41:48.924Z,11.90
2023-01-08T05:44:19.219Z,13.13
2023-01-08T05:46:49.944Z,13.13
2023-01-08T05:49:20.214Z,14.13
2023-01-08T05:51:50.565Z,14.00
2023-01-08T05:54:20.983Z,10.63
2023-01-08T05:56:51.384Z,14.32
2023-01-08T05:59:21.561Z,12.15
2023-01-08T06:01:52.280Z,15.38
2023-01-08T06:04:23.169Z,10.43
2023-01-08T06:06:53.798Z,15.13
2023-01-08T06:09:24.066Z,11.85
2023-01-08T06:11:54.973Z,13.68
2023-01-08T06:16:54.552Z,15.23
2023-01-08T06:19:25.323Z,8.98
2023-01-08T06:21:55.411Z,10.63
2023-01-08T06:26:58.476Z,6.72
2023-01-08T06:31:58.466Z,13.35
2023-01-08T06:34:31.908Z,10.00
2023-01-08T06:37:02.555Z,10.23
2023-01-08T06:39:33.920Z,12.38
2023-01-08T06:42:04.101Z,16.60
2023-01-08T06:44:34.576Z,13.90
2023-01-08T06:47:04.655Z,13.07
2023-01-08T06:52:07.487Z,15.07
2023-01-08T06:54:38.263Z,17.13
2023-01-08T06:59:37.780Z,7.22
2023-01-08T07:02:08.714Z,10.95
2023-01-08T07:04:39.021Z,15.85
2023-01-08T07:09:38.768Z,13.45
2023-01-08T07:12:13.000Z,15.70
2023-01-08T07:14:43.585Z,6.80
2023-01-08T07:17:13.704Z,13.07
2023-01-08T07:22:15.073Z,12.65
2023-01-08T07:24:45.560Z,11.88
2023-01-08T07:27:15.687Z,11.38
2023-01-08T07:32:15.569Z,19.80
2023-01-08T07:34:45.787Z,11.48
2023-01-08T07:37:16.473Z,16.05
2023-01-08T07:42:16.609Z,11.68
2023-01-08T07:44:49.723Z,18.85
2023-01-08T07:47:20.066Z,12.77
2023-01-08T07:49:50.100Z,13.35
2023-01-08T07:52:20.572Z,11.75
2023-01-08T07:54:50.875Z,9.40
2023-01-08T07:57:21.244Z,18.60
2023-01-08T07:59:51.479Z,10.13
2023-01-08T08:02:21.913Z,11.95
2023-01-08T08:04:52.296Z,13.70
2023-01-08T08:07:24.395Z,18.48
2023-01-08T08:09:54.616Z,13.93
2023-01-08T08:12:25.177Z,10.35
2023-01-08T08:17:25.821Z,11.63
2023-01-08T08:19:59.013Z,9.05
2023-01-08T08:22:29.399Z,10.68
2023-01-08T08:24:59.586Z,9.75
2023-01-08T08:27:30.177Z,15.07
2023-01-08T08:30:00.369Z,12.35
2023-01-08T08:32:31.011Z,14.00
2023-01-08T08:35:02.163Z,8.48
2023-01-08T08:37:32.757Z,10.93
2023-01-08T08:40:03.029Z,8.13
2023-01-08T08:42:35.130Z,15.43
2023-01-08T08:45:05.739Z,11.48
2023-01-08T08:47:36.417Z,8.80
2023-01-08T08:50:08.333Z,13.98
2023-01-08T08:52:38.785Z,11.32
2023-01-08T08:55:09.388Z,11.10
2023-01-08T08:57:40.034Z,16.38
2023-01-08T09:00:10.872Z,8.07
2023-01-08T09:02:41.878Z,8.85
2023-01-08T09:05:15.291Z,9.95
2023-01-08T09:07:45.653Z,12.30
2023-01-08T09:10:15.877Z,10.88
2023-01-08T09:12:48.029Z,12.15
2023-01-08T09:15:18.183Z,6.10
2023-01-08T09:17:57.722Z,9.43
2023-01-08T09:20:31.641Z,7.97
2023-01-08T09:23:02.988Z,8.27
2023-01-08T09:25:33.480Z,9.75
2023-01-08T09:28:06.964Z,8.20
2023-01-08T09:30:37.489Z,6.07
2023-01-08T09:33:11.643Z,8.77
2023-01-08T09:35:41.877Z,7.00
2023-01-08T09:38:12.775Z,6.63
2023-01-08T09:40:56.781Z,10.75
2023-01-08T09:43:30.008Z,7.47
2023-01-08T09:46:04.254Z,5.65
2023-01-08T09:48:39.892Z,9.43
2023-01-08T09:51:19.807Z,7.28
2023-01-08T09:53:56.283Z,4.78
2023-01-08T09:56:27.319Z,8.38
2023-01-08T09:59:00.714Z,7.68
2023-01-08T10:01:36.678Z,7.53
2023-01-08T10:04:30.370Z,5.55
2023-01-08T10:07:23.596Z,7.18
2023-01-08T10:09:54.970Z,9.45
2023-01-08T10:12:33.667Z,6.22
2023-01-08T10:15:07.341Z,5.72
2023-01-08T10:17:43.274Z,5.78
2023-01-08T10:20:21.990Z,5.57
2023-01-08T10:22:55.560Z,8.88
2023-01-08T10:25:29.177Z,7.75
2023-01-08T10:28:02.430Z,10.45
2023-01-08T10:30:41.001Z,9.20
2023-01-08T10:33:40.313Z,10.35
2023-01-08T10:36:13.444Z,9.70
2023-01-08T10:39:01.588Z,8.95
2023-01-08T10:41:32.549Z,10.40
2023-01-08T10:44:09.817Z,7.97
2023-01-08T10:46:52.040Z,11.43
2023-01-08T10:49:27.136Z,9.75
2023-01-08T10:51:57.654Z,7.90
2023-01-08T10:54:42.537Z,7.40
2023-01-08T10:57:27.868Z,8.15
2023-01-08T10:59:59.165Z,10.98
2023-01-08T11:02:42.397Z,8.57
2023-01-08T11:05:12.968Z,7.35
2023-01-08T11:07:43.501Z,6.90
2023-01-08T11:10:28.066Z,8.27
2023-01-08T11:13:01.672Z,10.63
2023-01-08T11:15:43.641Z,6.85
2023-01-08T11:18:22.362Z,9.98
2023-01-08T11:20:54.346Z,6.22
2023-01-08T11:23:30.584Z,5.60
2023-01-08T11:26:10.621Z,6.38
2023-01-08T11:29:12.809Z,7.53
2023-01-08T11:31:52.380Z,8.73
2023-01-08T11:34:38.621Z,11.40
2023-01-08T11:37:21.348Z,5.22
2023-01-08T11:39:54.060Z,8.18
2023-01-08T11:42:36.329Z,9.23
2023-01-08T11:45:31.757Z,7.60
2023-01-08T11:48:27.489Z,7.47
2023-01-08T11:51:21.660Z,7.18
2023-01-08T11:54:05.008Z,6.63
2023-01-08T11:56:43.888Z,6.63
2023-01-08T11:59:37.104Z,8.27
2023-01-08T12:02:36.070Z,10.43
2023-01-08T12:05:27.616Z,7.82
2023-01-08T12:08:14.217Z,8.63
2023-01-08T12:11:11.957Z,7.93
2023-01-08T12:14:13.199Z,6.53
2023-01-08T12:16:53.063Z,6.00
2023-01-08T12:19:47.385Z,7.07
2023-01-08T12:22:25.253Z,3.95
2023-01-08T12:25:03.678Z,6.22
2023-01-08T12:27:57.942Z,6.47
2023-01-08T12:30:57.529Z,5.05
2023-01-08T12:33:55.070Z,6.22
2023-01-08T12:36:41.828Z,9.25
2023-01-08T12:39:22.990Z,6.68
2023-01-08T12:41:56.750Z,6.95
2023-01-08T12:44:31.546Z,5.30
2023-01-08T12:47:05.794Z,7.80
2023-01-08T12:50:00.128Z,8.10
2023-01-08T12:52:41.380Z,6.93
2023-01-08T12:55:34.396Z,9.05
2023-01-08T12:58:35.725Z,7.90
2023-01-08T13:01:32.957Z,7.45
2023-01-08T13:04:05.923Z,8.05
2023-01-08T13:06:37.818Z,4.63
2023-01-08T13:09:08.239Z,7.15
2023-01-08T13:11:39.827Z,7.70
2023-01-08T13:14:15.048Z,4.40
2023-01-08T13:16:48.304Z,7.03
2023-01-08T13:19:43.916Z,4.88
2023-01-08T13:22:37.886Z,6.35
2023-01-08T13:25:18.250Z,4.32
2023-01-08T13:27:49.348Z,7.88
2023-01-08T13:30:41.760Z,4.53
2023-01-08T13:33:49.086Z,5.10
2023-01-08T13:36:28.307Z,6.90
2023-01-08T13:39:25.843Z,6.05
2023-01-08T13:42:08.113Z,7.75
2023-01-08T13:44:43.736Z,8.88
2023-01-08T13:50:23.279Z,5.30
2023-01-08T13:53:06.794Z,8.10
2023-01-08T13:55:49.013Z,4.10
2023-01-08T13:58:28.231Z,11.50
2023-01-08T14:01:00.942Z,6.93
2023-01-08T14:03:38.502Z,7.93
2023-01-08T14:06:22.368Z,8.20
2023-01-08T14:08:54.042Z,6.82
2023-01-08T14:11:48.986Z,6.00
2023-01-08T14:14:22.627Z,6.28
2023-01-08T14:16:54.775Z,6.72
2023-01-08T14:19:27.732Z,6.65
2023-01-08T14:22:00.732Z,7.13
2023-01-08T14:24:31.340Z,7.47
2023-01-08T14:27:02.410Z,4.63
2023-01-08T14:29:35.649Z,4.90
2023-01-08T14:32:15.596Z,5.93
2023-01-08T14:34:47.205Z,4.88
2023-01-08T14:37:18.628Z,5.82
2023-01-08T14:39:55.503Z,8.80
2023-01-08T14:42:45.397Z,7.63
2023-01-08T14:45:23.631Z,5.95
2023-01-08T14:47:58.240Z,5.00
2023-01-08T14:50:30.303Z,8.15
2023-01-08T14:53:09.421Z,6.68
2023-01-08T14:55:45.687Z,8.70
2023-01-08T15:00:57.886Z,3.20
2023-01-08T15:03:38.880Z,3.80
2023-01-08T15:06:09.340Z,7.20
2023-01-08T15:08:40.828Z,4.22
2023-01-08T15:11:34.922Z,8.05
2023-01-08T15:14:18.494Z,3.70
2023-01-08T15:16:49.108Z,4.82
2023-01-08T15:19:23.488Z,4.32
2023-01-08T15:21:59.674Z,5.43
2023-01-08T15:24:41.098Z,6.63
2023-01-08T15:27:21.318Z,5.28
2023-01-08T15:30:00.292Z,6.75
2023-01-08T15:32:35.890Z,6.80
2023-01-08T15:35:27.049Z,7.22
2023-01-08T15:38:00.349Z,4.78
2023-01-08T15:40:30.611Z,4.80
2023-01-08T15:43:14.001Z,8.07
2023-01-08T15:45:47.301Z,5.22
2023-01-08T15:48:17.936Z,4.80
2023-01-08T15:50:48.339Z,4.28
2023-01-08T15:53:23.377Z,4.65
2023-01-08T15:55:54.016Z,6.82
2023-01-08T15:58:24.512Z,5.18
2023-01-08T16:00:54.791Z,4.72
2023-01-08T16:03:28.667Z,6.38
2023-01-08T16:05:59.180Z,7.85
2023-01-08T16:08:29.548Z,8.23
2023-01-08T16:10:59.793Z,5.25
2023-01-08T16:13:30.222Z,5.70
2023-01-08T16:16:00.697Z,3.60
2023-01-08T16:18:31.172Z,4.10
2023-01-08T16:21:05.311Z,6.55
2023-01-08T16:23:37.892Z,6.22
2023-01-08T16:26:17.385Z,6.53
2023-01-08T16:28:47.738Z,6.55
2023-01-08T16:31:18.316Z,6.43
2023-01-08T16:33:48.725Z,7.00
2023-01-08T16:36:19.009Z,3.50
2023-01-08T16:38:50.708Z,5.28
2023-01-08T16:41:21.049Z,4.63
2023-01-08T16:43:51.618Z,6.68
2023-01-08T16:46:21.921Z,5.25
2023-01-08T16:48:52.743Z,7.53
2023-01-08T16:51:23.832Z,4.60
2023-01-08T16:53:54.262Z,4.63
2023-01-08T16:56:24.636Z,4.80
2023-01-08T16:58:55.078Z,6.82
2023-01-08T17:01:25.505Z,7.25
2023-01-08T17:03:55.984Z,6.65
2023-01-08T17:06:29.627Z,6.28
2023-01-08T17:09:03.048Z,9.50
2023-01-08T17:11:33.760Z,4.95
2023-01-08T17:14:04.351Z,5.97
2023-01-08T17:16:34.885Z,7.07
2023-01-08T17:19:05.757Z,6.32
2023-01-08T17:21:37.368Z,5.32
2023-01-08T17:24:08.426Z,6.18
2023-01-08T17:26:38.914Z,6.93
2023-01-08T17:29:09.575Z,4.25
2023-01-08T17:31:42.909Z,4.00
2023-01-08T17:34:15.258Z,5.55
2023-01-08T17:36:46.126Z,6.05
2023-01-08T17:39:16.642Z,5.88
2023-01-08T17:42:05.088Z,6.95
2023-01-08T17:44:35.533Z,4.00
2023-01-08T17:47:06.044Z,7.57
2023-01-08T17:49:36.448Z,10.15
2023-01-08T17:52:06.881Z,6.03
2023-01-08T17:54:37.652Z,5.57
2023-01-08T17:57:07.926Z,6.82
2023-01-08T17:59:38.724Z,6.70
2023-01-08T18:02:16.193Z,6.10
2023-01-08T18:04:47.007Z,5.22
2023-01-08T18:07:17.782Z,5.53
2023-01-08T18:09:50.382Z,6.20
2023-01-08T18:12:21.276Z,7.93
2023-01-08T18:14:51.657Z,6.47
2023-01-08T18:17:23.092Z,6.75
2023-01-08T18:19:56.999Z,6.68
2023-01-08T18:22:27.293Z,6.40
2023-01-08T18:24:57.661Z,8.82
2023-01-08T18:27:28.168Z,8.20
2023-01-08T18:29:58.538Z,6.97
2023-01-08T18:32:28.836Z,8.68
2023-01-08T18:34:59.981Z,6.80
2023-01-08T18:37:30.211Z,5.18
2023-01-08T18:40:00.719Z,7.10
2023-01-08T18:42:32.224Z,6.03
2023-01-08T18:45:04.398Z,5.97
2023-01-08T18:47:35.494Z,6.88
2023-01-08T18:50:06.505Z,5.63
2023-01-08T18:52:37.822Z,9.90
2023-01-08T18:55:08.492Z,4.13
2023-01-08T18:57:40.637Z,5.75
2023-01-08T19:00:12.149Z,11.48
2023-01-08T19:02:42.577Z,4.65
2023-01-08T19:05:13.121Z,5.97
2023-01-08T19:07:43.575Z,6.18
2023-01-08T19:10:15.870Z,4.32
2023-01-08T19:12:47.071Z,9.73
2023-01-08T19:15:17.516Z,7.32
2023-01-08T19:17:48.125Z,7.30
2023-01-08T19:20:18.783Z,7.72
2023-01-08T19:22:49.079Z,7.50
2023-01-08T19:25:19.794Z,9.45
2023-01-08T19:27:50.385Z,7.03
2023-01-08T19:30:20.911Z,9.82
2023-01-08T19:32:51.715Z,5.90
2023-01-08T19:35:22.188Z,5.18
2023-01-08T19:37:52.443Z,5.20
2023-01-08T19:40:23.005Z,7.97
2023-01-08T19:43:11.592Z,7.57
2023-01-08T19:45:41.961Z,5.50
2023-01-08T19:48:12.255Z,12.05
2023-01-08T19:50:42.950Z,7.43
2023-01-08T19:53:14.593Z,9.40
2023-01-08T19:55:46.457Z,6.65
2023-01-08T19:58:18.076Z,9.25
2023-01-08T20:00:51.099Z,7.25
2023-01-08T20:03:25.189Z,8.80
2023-01-08T20:05:55.752Z,6.43
2023-01-08T20:08:26.062Z,8.40
2023-01-08T20:10:56.575Z,5.22
2023-01-08T20:13:26.821Z,8.73
2023-01-08T20:15:58.454Z,6.75
2023-01-08T20:18:28.895Z,8.88
2023-01-08T20:21:10.188Z,7.38
2023-01-08T20:23:41.084Z,6.57
2023-01-08T20:26:15.679Z,6.30
2023-01-08T20:28:48.529Z,8.77
2023-01-08T20:31:20.565Z,5.68
2023-01-08T20:33:51.170Z,7.80
2023-01-08T20:36:24.040Z,8.88
2023-01-08T20:38:59.921Z,10.25
2023-01-08T20:41:30.748Z,8.65
2023-01-08T20:44:03.289Z,7.75
2023-01-08T20:46:34.139Z,6.32
2023-01-08T20:49:09.916Z,7.07
2023-01-08T20:51:44.257Z,9.07
2023-01-08T20:54:19.344Z,7.25
2023-01-08T20:56:50.351Z,7.50
2023-01-08T20:59:20.906Z,11.63
2023-01-08T21:01:51.610Z,8.57
2023-01-08T21:04:22.553Z,9.10
2023-01-08T21:06:53.057Z,5.63
2023-01-08T21:09:23.212Z,10.40
2023-01-08T21:11:53.632Z,14.25
2023-01-08T21:14:23.945Z,9.38
2023-01-08T21:16:57.583Z,8.93
2023-01-08T21:19:28.023Z,7.05
2023-01-08T21:21:58.659Z,7.90
2023-01-08T21:24:28.934Z,8.98
2023-01-08T21:27:01.897Z,11.95
2023-01-08T21:29:32.148Z,6.35
2023-01-08T21:32:02.717Z,10.80
2023-01-08T21:34:33.382Z,7.80
2023-01-08T21:37:05.353Z,10.25
2023-01-08T21:39:36.004Z,11.23
2023-01-08T21:42:24.805Z,8.77
2023-01-08T21:45:13.126Z,6.38
2023-01-08T21:47:44.229Z,6.90
2023-01-08T21:50:15.464Z,5.80
2023-01-08T21:53:04.414Z,4.82
2023-01-08T21:55:36.325Z,5.82
2023-01-08T21:58:06.691Z,8.40
2023-01-08T22:00:39.185Z,6.53
2023-01-08T22:03:09.328Z,5.82
2023-01-08T22:05:40.002Z,6.88
2023-01-08T22:08:15.032Z,5.88
2023-01-08T22:10:45.822Z,8.93
2023-01-08T22:13:15.950Z,16.00
2023-01-08T22:15:46.679Z,5.03
2023-01-08T22:18:16.795Z,7.78
2023-01-08T22:20:48.233Z,5.80
2023-01-08T22:23:18.747Z,8.50
2023-01-08T22:25:49.238Z,9.75
2023-01-08T22:28:19.346Z,10.30
2023-01-08T22:30:50.071Z,9.63
2023-01-08T22:33:20.432Z,14.80
2023-01-08T22:35:51.145Z,7.28
2023-01-08T22:38:21.258Z,6.93
2023-01-08T22:40:53.741Z,9.32
2023-01-08T22:43:24.431Z,6.97
2023-01-08T22:45:58.399Z,9.57
2023-01-08T22:48:29.443Z,6.22
2023-01-08T22:51:04.789Z,7.88
2023-01-08T22:53:35.401Z,10.88
2023-01-08T22:56:13.458Z,8.57
2023-01-08T22:58:46.485Z,8.88
2023-01-08T23:01:28.812Z,10.98
2023-01-08T23:04:03.213Z,12.18
2023-01-08T23:06:34.517Z,7.55
2023-01-08T23:09:05.277Z,5.50
2023-01-08T23:11:38.231Z,9.48
2023-01-08T23:14:08.360Z,9.60
2023-01-08T23:16:39.445Z,6.47
2023-01-08T23:19:10.365Z,8.95
2023-01-08T23:21:42.039Z,9.20
2023-01-08T23:24:16.085Z,6.75
2023-01-08T23:26:46.572Z,14.93
2023-01-08T23:29:16.733Z,8.63
2023-01-08T23:31:47.966Z,13.35
2023-01-08T23:34:18.965Z,11.30
2023-01-08T23:36:49.608Z,8.50
2023-01-08T23:39:22.497Z,11.60
2023-01-08T23:41:53.345Z,11.05
2023-01-08T23:44:23.732Z,7.78
2023-01-08T23:46:54.345Z,8.13
2023-01-08T23:49:24.561Z,10.90
2023-01-08T23:51:56.487Z,10.57
2023-01-08T23:54:26.821Z,8.60
2023-01-08T23:56:57.507Z,6.82
2023-01-08T23:59:27.722Z,6.50
